Time;durP1;ratioP1;P1;durP2;ratioP2;P2;SDS_P1;SDS_P2;PMS_P1;PMS_P2;Temp;Humidity;BMP_temperature;BMP_pressure;BME280_temperature;BME280_humidity;BME280_pressure;Samples;Min_cycle;Max_cycle;Signal;HPM_P1;HPM_P2
2023/05/27 00:01:58;;;;;;;13.25;2.63;;;;;;;;;;5041862;28;20032;-77
2023/05/27 00:04:23;;;;;;;9.20;2.38;;;;;;;;;;5036908;28;20048;-77
2023/05/27 00:06:48;;;;;;;9.93;2.50;;;;;;;;;;5054414;28;20037;-77
2023/05/27 00:09:14;;;;;;;6.05;1.92;;;;;;;;;;5055293;28;20056;-77
2023/05/27 00:11:40;;;;;;;8.90;2.63;;;;;;;;;;5055245;28;20064;-78
2023/05/27 00:14:05;;;;;;;6.35;1.83;;;;;;;;;;5034620;28;20044;-78
2023/05/27 00:19:05;;;;;;;6.25;2.20;;;;;;;;;;5798847;23;20242;-81
2023/05/27 00:21:31;;;;;;;7.97;2.03;;;;;;;;;;5017409;28;20038;-81
2023/05/27 00:23:59;;;;;;;7.50;2.30;;;;;;;;;;5029577;28;20040;-81
2023/05/27 00:26:25;;;;;;;9.85;2.38;;;;;;;;;;5026994;28;20439;-81
2023/05/27 00:28:51;;;;;;;7.25;2.83;;;;;;;;;;5046796;28;20381;-81
2023/05/27 00:31:16;;;;;;;8.13;2.10;;;;;;;;;;5027906;28;20032;-81
2023/05/27 00:33:43;;;;;;;11.77;2.67;;;;;;;;;;5028492;28;20033;-81
2023/05/27 00:36:09;;;;;;;9.00;2.97;;;;;;;;;;5044866;28;20685;-81
2023/05/27 00:38:35;;;;;;;9.30;2.47;;;;;;;;;;5028638;28;20362;-81
2023/05/27 00:41:02;;;;;;;9.57;2.30;;;;;;;;;;5026318;28;20052;-81
2023/05/27 00:43:30;;;;;;;8.00;2.28;;;;;;;;;;5022467;28;20044;-80
2023/05/27 00:45:55;;;;;;;11.13;2.25;;;;;;;;;;5028252;28;20029;-80
2023/05/27 00:48:21;;;;;;;6.15;1.98;;;;;;;;;;5045714;28;20776;-81
2023/05/27 00:50:46;;;;;;;6.75;2.10;;;;;;;;;;5027883;28;20037;-80
2023/05/27 00:53:12;;;;;;;6.40;1.95;;;;;;;;;;5045889;28;20036;-81
2023/05/27 00:55:37;;;;;;;7.20;2.30;;;;;;;;;;5044867;28;20500;-81
2023/05/27 00:58:03;;;;;;;10.65;2.45;;;;;;;;;;5012875;28;20037;-81
2023/05/27 01:00:29;;;;;;;11.68;2.38;;;;;;;;;;5010417;28;20037;-81
2023/05/27 01:02:54;;;;;;;7.95;2.05;;;;;;;;;;5028119;28;20566;-81
2023/05/27 01:05:21;;;;;;;8.38;2.35;;;;;;;;;;5044541;28;20040;-81
2023/05/27 01:08:13;;;;;;;8.02;2.38;;;;;;;;;;5026206;28;20051;-81
2023/05/27 01:10:57;;;;;;;6.22;2.35;;;;;;;;;;5018834;28;20513;-81
2023/05/27 01:13:33;;;;;;;7.93;1.90;;;;;;;;;;5044778;28;20123;-81
2023/05/27 01:16:01;;;;;;;7.65;2.10;;;;;;;;;;5026984;28;20041;-80
2023/05/27 01:18:30;;;;;;;9.35;2.38;;;;;;;;;;5045938;28;20033;-81
2023/05/27 01:21:01;;;;;;;9.07;2.45;;;;;;;;;;5018034;28;20067;-81
2023/05/27 01:23:27;;;;;;;9.57;2.28;;;;;;;;;;5015711;28;20033;-81
2023/05/27 01:25:52;;;;;;;9.52;2.50;;;;;;;;;;5043996;28;20106;-81
2023/05/27 01:28:18;;;;;;;7.50;2.05;;;;;;;;;;5027294;28;20018;-81
2023/05/27 01:30:43;;;;;;;9.27;2.25;;;;;;;;;;5004709;28;20051;-81
2023/05/27 01:33:13;;;;;;;9.32;2.13;;;;;;;;;;5028371;28;20037;-81
2023/05/27 01:35:45;;;;;;;9.02;2.60;;;;;;;;;;5025504;28;20439;-81
2023/05/27 01:38:17;;;;;;;8.80;2.38;;;;;;;;;;5027558;28;20506;-81
2023/05/27 01:40:43;;;;;;;8.50;2.60;;;;;;;;;;5010273;28;20224;-81
2023/05/27 01:43:09;;;;;;;6.97;2.05;;;;;;;;;;5027026;28;20116;-80
2023/05/27 01:45:35;;;;;;;7.65;1.95;;;;;;;;;;5043898;28;20033;-80
2023/05/27 01:48:00;;;;;;;12.00;2.25;;;;;;;;;;5044717;28;20040;-80
2023/05/27 01:50:26;;;;;;;6.45;2.20;;;;;;;;;;5026585;28;20507;-81
2023/05/27 01:52:51;;;;;;;6.72;1.88;;;;;;;;;;5026600;28;20104;-81
2023/05/27 01:55:17;;;;;;;7.60;2.03;;;;;;;;;;5009059;28;20040;-81
2023/05/27 01:57:43;;;;;;;7.22;1.85;;;;;;;;;;5044432;28;20039;-81
2023/05/27 02:00:09;;;;;;;8.32;2.35;;;;;;;;;;5044498;28;20384;-81
2023/05/27 02:02:34;;;;;;;9.32;2.60;;;;;;;;;;5043346;28;20037;-81
2023/05/27 02:05:00;;;;;;;9.10;2.30;;;;;;;;;;5010892;28;20044;-81
2023/05/27 02:07:26;;;;;;;9.60;2.60;;;;;;;;;;5026255;28;20033;-81
2023/05/27 02:09:52;;;;;;;6.68;2.05;;;;;;;;;;5026146;28;20116;-81
2023/05/27 02:12:17;;;;;;;10.63;2.30;;;;;;;;;;5043859;28;20116;-81
2023/05/27 02:14:44;;;;;;;6.97;2.35;;;;;;;;;;5044485;28;20560;-81
2023/05/27 02:17:10;;;;;;;8.20;2.35;;;;;;;;;;5042524;28;20191;-81
2023/05/27 02:19:35;;;;;;;8.63;2.58;;;;;;;;;;5026314;28;20040;-80
2023/05/27 02:22:01;;;;;;;9.40;2.42;;;;;;;;;;5025838;28;20043;-81
2023/05/27 02:24:27;;;;;;;7.65;2.22;;;;;;;;;;5044612;28;20695;-81
2023/05/27 02:26:52;;;;;;;11.23;2.60;;;;;;;;;;5025345;28;20488;-81
2023/05/27 02:29:18;;;;;;;9.05;2.40;;;;;;;;;;5025116;28;20037;-81
2023/05/27 02:31:43;;;;;;;8.55;2.33;;;;;;;;;;5042908;28;20028;-81
2023/05/27 02:34:08;;;;;;;8.52;2.30;;;;;;;;;;5025435;28;20078;-81
2023/05/27 02:36:34;;;;;;;13.35;3.10;;;;;;;;;;5042124;28;20384;-81
2023/05/27 02:39:00;;;;;;;8.85;2.30;;;;;;;;;;5025336;28;20044;-81
2023/05/27 02:41:26;;;;;;;6.78;2.30;;;;;;;;;;5043056;28;20065;-81
2023/05/27 02:43:51;;;;;;;7.72;2.60;;;;;;;;;;5025182;28;20560;-81
2023/05/27 02:46:17;;;;;;;8.27;2.67;;;;;;;;;;5008541;28;20037;-81
2023/05/27 02:48:42;;;;;;;10.85;2.55;;;;;;;;;;5024925;28;20147;-81
2023/05/27 02:51:08;;;;;;;11.35;2.67;;;;;;;;;;5042647;28;20036;-81
2023/05/27 02:53:33;;;;;;;8.93;2.90;;;;;;;;;;5009076;28;20072;-81
2023/05/27 02:55:58;;;;;;;10.68;2.88;;;;;;;;;;5043372;28;20083;-81
2023/05/27 02:58:24;;;;;;;8.73;2.60;;;;;;;;;;5020432;28;20045;-81
2023/05/27 03:00:49;;;;;;;7.53;2.60;;;;;;;;;;5042127;28;20048;-81
2023/05/27 03:03:14;;;;;;;7.47;2.20;;;;;;;;;;5042804;28;20033;-81
2023/05/27 03:05:40;;;;;;;7.80;2.47;;;;;;;;;;5023962;28;20041;-81
2023/05/27 03:08:06;;;;;;;10.80;2.85;;;;;;;;;;5008252;28;20506;-81
2023/05/27 03:10:32;;;;;;;5.93;2.58;;;;;;;;;;5007687;28;20033;-81
2023/05/27 03:12:57;;;;;;;8.00;2.40;;;;;;;;;;5043289;28;20238;-81
2023/05/27 03:15:23;;;;;;;10.40;2.70;;;;;;;;;;5042101;28;20044;-80
2023/05/27 03:17:48;;;;;;;9.45;2.90;;;;;;;;;;5042919;28;20471;-80
2023/05/27 03:20:16;;;;;;;8.25;2.97;;;;;;;;;;5041828;28;20051;-81
2023/05/27 03:22:42;;;;;;;8.65;2.38;;;;;;;;;;5043594;28;20914;-81
2023/05/27 03:25:07;;;;;;;12.38;3.58;;;;;;;;;;5043455;28;20033;-80
2023/05/27 03:27:33;;;;;;;10.82;3.45;;;;;;;;;;5025367;28;20409;-80
2023/05/27 03:29:58;;;;;;;9.10;2.90;;;;;;;;;;5025727;28;20029;-80
2023/05/27 03:32:24;;;;;;;10.13;2.63;;;;;;;;;;5025190;28;20036;-77
2023/05/27 03:34:49;;;;;;;8.65;2.70;;;;;;;;;;5025482;28;20531;-81
2023/05/27 03:37:15;;;;;;;9.50;2.90;;;;;;;;;;4997907;28;20142;-81
2023/05/27 03:39:40;;;;;;;9.63;2.80;;;;;;;;;;5023836;28;20098;-81
2023/05/27 03:42:06;;;;;;;6.03;2.60;;;;;;;;;;5008923;28;20033;-81
2023/05/27 03:44:32;;;;;;;10.55;3.03;;;;;;;;;;5025622;28;20037;-81
2023/05/27 03:46:57;;;;;;;8.98;2.78;;;;;;;;;;5017087;28;20027;-81
2023/05/27 03:49:23;;;;;;;7.13;2.75;;;;;;;;;;5027365;28;20499;-81
2023/05/27 03:51:48;;;;;;;9.20;2.90;;;;;;;;;;5011940;28;20123;-81
2023/05/27 03:54:14;;;;;;;8.80;2.88;;;;;;;;;;5028125;28;20116;-82
2023/05/27 03:56:40;;;;;;;8.60;2.70;;;;;;;;;;5008186;28;20041;-81
2023/05/27 03:59:06;;;;;;;8.85;3.33;;;;;;;;;;5028540;28;20048;-81
2023/05/27 04:01:32;;;;;;;8.88;3.22;;;;;;;;;;5028313;28;20492;-81
2023/05/27 04:03:57;;;;;;;8.48;2.88;;;;;;;;;;5029178;28;20036;-81
2023/05/27 04:06:23;;;;;;;6.60;2.63;;;;;;;;;;5046535;28;20478;-81
2023/05/27 04:08:48;;;;;;;8.70;2.90;;;;;;;;;;5034460;28;20036;-82
2023/05/27 04:11:14;;;;;;;6.40;2.53;;;;;;;;;;5011670;28;20033;-81
2023/05/27 04:13:40;;;;;;;6.97;2.83;;;;;;;;;;5028420;28;20204;-81
2023/05/27 04:16:06;;;;;;;9.90;2.50;;;;;;;;;;5045209;28;20033;-82
2023/05/27 04:18:32;;;;;;;5.63;2.40;;;;;;;;;;5028231;28;20395;-81
2023/05/27 04:20:58;;;;;;;10.60;3.15;;;;;;;;;;5027536;28;20037;-82
2023/05/27 04:23:24;;;;;;;6.72;2.50;;;;;;;;;;5006079;28;20120;-81
2023/05/27 04:25:49;;;;;;;12.40;3.50;;;;;;;;;;5027912;28;20155;-81
2023/05/27 04:28:15;;;;;;;10.32;3.05;;;;;;;;;;5011638;28;20029;-81
2023/05/27 04:30:41;;;;;;;9.75;3.00;;;;;;;;;;5025266;28;20033;-81
2023/05/27 04:33:07;;;;;;;9.27;2.85;;;;;;;;;;5028819;28;20047;-81
2023/05/27 04:35:33;;;;;;;8.43;2.67;;;;;;;;;;5026090;28;21024;-80
2023/05/27 04:38:00;;;;;;;9.43;2.72;;;;;;;;;;5029254;28;20032;-81
2023/05/27 04:40:26;;;;;;;9.52;2.97;;;;;;;;;;5045137;28;20129;-81
2023/05/27 04:42:52;;;;;;;10.95;3.00;;;;;;;;;;5011275;28;20033;-82
2023/05/27 04:45:18;;;;;;;8.90;2.50;;;;;;;;;;5027182;28;20055;-82
2023/05/27 04:47:44;;;;;;;5.97;2.63;;;;;;;;;;5027666;28;20044;-82
2023/05/27 04:50:10;;;;;;;10.52;3.78;;;;;;;;;;5027607;28;20044;-81
2023/05/27 04:52:40;;;;;;;9.85;3.15;;;;;;;;;;5011389;28;20040;-82
2023/05/27 04:55:07;;;;;;;9.35;2.78;;;;;;;;;;5044327;28;20048;-81
2023/05/27 04:57:33;;;;;;;9.85;2.88;;;;;;;;;;5027884;28;20073;-81
2023/05/27 05:00:17;;;;;;;7.90;2.95;;;;;;;;;;5028104;28;20120;-81
2023/05/27 05:02:46;;;;;;;6.47;2.30;;;;;;;;;;5006376;28;20041;-81
2023/05/27 05:05:12;;;;;;;9.63;3.03;;;;;;;;;;5011017;28;20443;-82
2023/05/27 05:07:41;;;;;;;6.70;2.47;;;;;;;;;;5009248;28;20098;-81
2023/05/27 05:10:10;;;;;;;7.97;2.45;;;;;;;;;;5027904;28;20863;-81
2023/05/27 05:12:36;;;;;;;11.32;3.22;;;;;;;;;;5026977;28;20033;-81
2023/05/27 05:15:02;;;;;;;9.25;2.53;;;;;;;;;;5027916;28;20476;-81
2023/05/27 05:17:28;;;;;;;8.23;2.20;;;;;;;;;;5000188;28;20040;-82
2023/05/27 05:19:53;;;;;;;9.00;2.83;;;;;;;;;;5014189;28;20037;-82
2023/05/27 05:22:20;;;;;;;7.60;2.53;;;;;;;;;;5006691;28;20048;-82
2023/05/27 05:24:46;;;;;;;7.70;2.92;;;;;;;;;;5045010;28;20032;-82
2023/05/27 05:27:12;;;;;;;10.38;2.83;;;;;;;;;;5009456;28;20094;-82
2023/05/27 05:29:38;;;;;;;8.40;2.15;;;;;;;;;;4990790;28;20041;-81
2023/05/27 05:32:04;;;;;;;7.90;2.17;;;;;;;;;;5026862;28;20052;-80
2023/05/27 05:34:30;;;;;;;6.53;2.03;;;;;;;;;;5004318;28;20043;-81
2023/05/27 05:36:55;;;;;;;7.60;2.17;;;;;;;;;;5010047;28;20036;-82
2023/05/27 05:39:21;;;;;;;10.15;2.17;;;;;;;;;;5026316;28;20055;-81
2023/05/27 05:41:46;;;;;;;9.35;2.28;;;;;;;;;;5025412;28;20047;-81
2023/05/27 05:44:12;;;;;;;11.70;2.67;;;;;;;;;;5021975;28;20492;-81
2023/05/27 05:46:38;;;;;;;7.57;2.10;;;;;;;;;;5042281;28;20392;-81
2023/05/27 05:49:04;;;;;;;10.27;2.40;;;;;;;;;;5044118;28;20555;-81
2023/05/27 05:51:30;;;;;;;6.28;2.08;;;;;;;;;;5011261;28;20059;-82
2023/05/27 05:53:58;;;;;;;6.40;2.20;;;;;;;;;;5026092;28;20029;-81
2023/05/27 05:56:26;;;;;;;5.60;1.63;;;;;;;;;;5008542;28;20037;-81
2023/05/27 05:58:51;;;;;;;7.53;2.20;;;;;;;;;;5014536;28;20825;-81
2023/05/27 06:01:17;;;;;;;5.60;1.77;;;;;;;;;;5009158;28;20055;-81
2023/05/27 06:03:43;;;;;;;7.30;1.80;;;;;;;;;;5010946;28;20037;-81
2023/05/27 06:06:08;;;;;;;8.98;1.92;;;;;;;;;;5024390;28;20526;-82
2023/05/27 06:08:34;;;;;;;6.45;1.92;;;;;;;;;;5018059;28;20040;-82
2023/05/27 06:10:59;;;;;;;5.32;1.77;;;;;;;;;;5008982;28;20393;-81
2023/05/27 06:13:25;;;;;;;6.57;1.75;;;;;;;;;;5025250;28;20040;-81
2023/05/27 06:15:50;;;;;;;6.57;1.83;;;;;;;;;;5025675;28;20037;-82
2023/05/27 06:18:16;;;;;;;5.13;1.50;;;;;;;;;;5026254;28;20040;-81
2023/05/27 06:20:41;;;;;;;3.85;1.30;;;;;;;;;;5004607;28;20049;-82
2023/05/27 06:23:07;;;;;;;5.40;1.55;;;;;;;;;;5006505;28;20504;-81
2023/05/27 06:25:32;;;;;;;4.00;1.08;;;;;;;;;;5021541;28;20045;-81
2023/05/27 06:27:58;;;;;;;9.60;4.07;;;;;;;;;;4998357;28;20110;-82
2023/05/27 06:30:23;;;;;;;5.30;1.38;;;;;;;;;;4999939;28;20760;-81
2023/05/27 06:32:49;;;;;;;5.25;1.38;;;;;;;;;;5038672;28;20041;-82
2023/05/27 06:35:15;;;;;;;7.00;0.90;;;;;;;;;;5021472;28;20492;-82
2023/05/27 06:37:40;;;;;;;4.85;1.00;;;;;;;;;;5006169;28;20037;-81
2023/05/27 06:40:06;;;;;;;5.90;1.35;;;;;;;;;;5021987;28;20048;-82
2023/05/27 06:42:32;;;;;;;4.68;1.42;;;;;;;;;;5005320;28;20037;-81
2023/05/27 06:44:57;;;;;;;4.18;0.85;;;;;;;;;;5021355;28;20033;-82
2023/05/27 06:47:23;;;;;;;3.60;1.00;;;;;;;;;;5021324;28;20370;-81
2023/05/27 06:49:48;;;;;;;4.38;1.10;;;;;;;;;;5022583;28;20037;-82
2023/05/27 06:52:13;;;;;;;5.88;1.42;;;;;;;;;;5004728;28;20030;-82
2023/05/27 06:54:39;;;;;;;2.47;1.02;;;;;;;;;;5021410;28;20042;-82
2023/05/27 06:57:04;;;;;;;4.03;1.30;;;;;;;;;;5004818;28;20037;-82
2023/05/27 06:59:30;;;;;;;3.28;0.85;;;;;;;;;;4999819;28;20072;-82
2023/05/27 07:01:58;;;;;;;2.95;0.80;;;;;;;;;;5021403;28;20061;-81
2023/05/27 07:04:24;;;;;;;3.28;0.82;;;;;;;;;;5021834;28;20065;-82
2023/05/27 07:06:50;;;;;;;2.28;0.85;;;;;;;;;;5002671;28;20476;-82
2023/05/27 07:09:15;;;;;;;4.03;0.95;;;;;;;;;;5005573;28;20029;-81
2023/05/27 07:11:41;;;;;;;3.20;0.80;;;;;;;;;;5023014;28;20045;-81
2023/05/27 07:14:09;;;;;;;3.70;0.70;;;;;;;;;;5021501;28;20072;-83
2023/05/27 07:16:34;;;;;;;;;;;;;;;;;;5005174;28;20069;-82
2023/05/27 07:19:00;;;;;;;2.92;0.80;;;;;;;;;;5000535;28;19960;-82
2023/05/27 07:21:25;;;;;;;3.97;0.88;;;;;;;;;;5004936;28;20029;-82
2023/05/27 07:23:51;;;;;;;3.42;0.55;;;;;;;;;;5008825;28;20041;-81
2023/05/27 07:26:16;;;;;;;1.95;0.55;;;;;;;;;;5007801;28;20131;-82
2023/05/27 07:28:41;;;;;;;3.08;0.60;;;;;;;;;;5025726;28;20086;-82
2023/05/27 07:31:07;;;;;;;3.53;0.70;;;;;;;;;;5008596;28;20022;-81
2023/05/27 07:33:32;;;;;;;2.53;0.60;;;;;;;;;;5003288;28;20083;-84
2023/05/27 07:35:58;;;;;;;2.28;0.70;;;;;;;;;;5026259;28;20037;-82
2023/05/27 07:38:23;;;;;;;2.13;0.50;;;;;;;;;;5025730;28;20090;-83
2023/05/27 07:40:49;;;;;;;3.08;0.70;;;;;;;;;;5007906;28;20052;-83
2023/05/27 07:43:15;;;;;;;3.05;0.60;;;;;;;;;;5008208;28;20109;-82
2023/05/27 07:45:43;;;;;;;2.20;0.63;;;;;;;;;;4989156;28;20091;-83
2023/05/27 07:48:08;;;;;;;2.38;0.88;;;;;;;;;;5011876;28;20037;-82
2023/05/27 07:50:35;;;;;;;2.17;0.63;;;;;;;;;;5008058;28;20038;-83
2023/05/27 07:53:02;;;;;;;1.70;0.45;;;;;;;;;;5027200;28;20041;-83
2023/05/27 07:55:27;;;;;;;2.20;0.45;;;;;;;;;;5024867;28;20116;-82
2023/05/27 07:57:57;;;;;;;2.83;0.50;;;;;;;;;;5024018;28;20113;-82
2023/05/27 08:00:23;;;;;;;1.95;0.60;;;;;;;;;;5007796;28;20479;-82
2023/05/27 08:02:48;;;;;;;2.97;0.73;;;;;;;;;;5025541;28;20041;-81
2023/05/27 08:05:13;;;;;;;2.10;0.50;;;;;;;;;;5024713;28;20039;-81
2023/05/27 08:07:40;;;;;;;3.72;0.60;;;;;;;;;;5018908;28;20048;-82
2023/05/27 08:10:07;;;;;;;2.20;0.45;;;;;;;;;;5026722;28;20523;-81
2023/05/27 08:12:33;;;;;;;;;;;;;;;;;;5008404;28;20037;-81
2023/05/27 08:14:58;;;;;;;2.35;0.50;;;;;;;;;;5020521;28;19912;-82
2023/05/27 08:17:24;;;;;;;1.70;0.50;;;;;;;;;;5025086;28;20037;-82
2023/05/27 08:19:49;;;;;;;2.40;0.50;;;;;;;;;;5009843;28;20052;-82
2023/05/27 08:22:15;;;;;;;1.80;0.40;;;;;;;;;;5006961;28;20624;-81
2023/05/27 08:24:42;;;;;;;2.92;0.55;;;;;;;;;;5013302;28;20041;-81
2023/05/27 08:27:18;;;;;;;2.73;0.60;;;;;;;;;;4996981;28;20574;-77
2023/05/27 08:29:43;;;;;;;2.47;0.60;;;;;;;;;;5006292;28;20041;-76
2023/05/27 08:32:09;;;;;;;1.90;0.40;;;;;;;;;;5008920;28;20416;-77
2023/05/27 08:34:34;;;;;;;2.22;0.55;;;;;;;;;;5025372;28;20560;-76
2023/05/27 08:37:01;;;;;;;2.17;0.50;;;;;;;;;;5026792;28;20032;-76
2023/05/27 08:39:27;;;;;;;2.67;0.55;;;;;;;;;;5026781;28;20057;-76
2023/05/27 08:41:53;;;;;;;2.05;0.52;;;;;;;;;;5008500;28;20073;-76
2023/05/27 08:44:18;;;;;;;1.88;0.50;;;;;;;;;;5024877;28;20519;-76
2023/05/27 08:46:46;;;;;;;1.35;0.30;;;;;;;;;;5024915;28;20056;-77
2023/05/27 08:49:11;;;;;;;2.35;0.60;;;;;;;;;;5024984;28;20103;-76
2023/05/27 08:51:40;;;;;;;2.13;0.43;;;;;;;;;;5024784;28;20432;-78
2023/05/27 08:54:05;;;;;;;3.17;0.90;;;;;;;;;;5024190;28;20099;-75
2023/05/27 08:56:32;;;;;;;3.55;1.35;;;;;;;;;;5024968;28;20053;-75
2023/05/27 08:58:58;;;;;;;5.75;1.77;;;;;;;;;;5026422;28;20034;-75
2023/05/27 09:01:24;;;;;;;4.30;0.90;;;;;;;;;;5007747;28;20083;-75
2023/05/27 09:03:50;;;;;;;3.70;0.80;;;;;;;;;;5024582;28;20064;-79
2023/05/27 09:06:15;;;;;;;4.10;0.70;;;;;;;;;;5024571;28;20135;-75
2023/05/27 09:08:41;;;;;;;2.00;0.55;;;;;;;;;;5024804;28;20103;-75
2023/05/27 09:11:07;;;;;;;2.30;0.55;;;;;;;;;;5024628;28;20060;-75
2023/05/27 09:13:33;;;;;;;1.50;0.30;;;;;;;;;;5026367;28;20025;-75
2023/05/27 09:16:03;;;;;;;1.33;0.28;;;;;;;;;;5024225;28;20044;-76
2023/05/27 09:18:30;;;;;;;1.88;0.52;;;;;;;;;;5025925;28;20149;-76
2023/05/27 09:20:56;;;;;;;2.53;0.50;;;;;;;;;;5025924;28;20094;-76
2023/05/27 09:23:22;;;;;;;1.85;0.50;;;;;;;;;;5027756;28;20184;-77
2023/05/27 09:25:47;;;;;;;1.42;0.40;;;;;;;;;;5044737;28;20454;-76
2023/05/27 09:28:23;;;;;;;1.60;0.50;;;;;;;;;;5046107;28;20500;-75
2023/05/27 09:31:06;;;;;;;3.20;0.60;;;;;;;;;;5026794;28;20068;-75
2023/05/27 09:33:33;;;;;;;3.60;0.70;;;;;;;;;;5027836;28;20116;-76
2023/05/27 09:35:59;;;;;;;2.30;0.60;;;;;;;;;;5044056;28;20400;-76
2023/05/27 09:38:28;;;;;;;1.77;0.47;;;;;;;;;;5022116;28;20516;-76
2023/05/27 09:40:53;;;;;;;1.40;0.38;;;;;;;;;;5044367;28;20409;-75
2023/05/27 09:43:19;;;;;;;1.50;0.40;;;;;;;;;;5045248;28;20089;-77
2023/05/27 09:45:45;;;;;;;2.88;0.60;;;;;;;;;;5025855;28;20408;-76
2023/05/27 09:48:12;;;;;;;1.50;0.60;;;;;;;;;;5044747;28;20036;-75
2023/05/27 09:50:38;;;;;;;1.77;0.70;;;;;;;;;;5010657;28;20128;-75
2023/05/27 09:53:04;;;;;;;2.05;0.68;;;;;;;;;;5027393;28;20135;-75
2023/05/27 09:55:30;;;;;;;3.08;0.68;;;;;;;;;;5003003;28;20029;-75
2023/05/27 09:57:56;;;;;;;1.92;0.60;;;;;;;;;;5026630;28;20037;-75
2023/05/27 10:00:21;;;;;;;3.08;0.60;;;;;;;;;;5025253;28;20112;-76
2023/05/27 10:02:48;;;;;;;2.95;0.60;;;;;;;;;;5027438;28;20037;-76
2023/05/27 10:05:15;;;;;;;3.38;0.60;;;;;;;;;;5043833;28;20036;-76
2023/05/27 10:07:43;;;;;;;5.40;1.02;;;;;;;;;;5043651;28;20074;-75
2023/05/27 10:10:11;;;;;;;2.60;0.70;;;;;;;;;;5026456;28;20049;-76
2023/05/27 10:12:37;;;;;;;2.10;0.60;;;;;;;;;;5016182;28;20475;-76
2023/05/27 10:15:03;;;;;;;3.25;0.70;;;;;;;;;;5026577;28;20040;-76
2023/05/27 10:17:41;;;;;;;2.00;0.52;;;;;;;;;;5026354;28;20379;-75
2023/05/27 10:20:07;;;;;;;2.33;0.60;;;;;;;;;;5044379;28;20052;-76
2023/05/27 10:22:53;;;;;;;1.70;0.60;;;;;;;;;;5009525;28;20151;-77
2023/05/27 10:25:18;;;;;;;1.50;0.50;;;;;;;;;;5043467;28;20563;-75
2023/05/27 10:27:45;;;;;;;2.00;0.52;;;;;;;;;;5026989;28;20041;-75
2023/05/27 10:30:11;;;;;;;1.60;0.57;;;;;;;;;;5026654;28;20120;-76
2023/05/27 10:32:50;;;;;;;3.00;0.70;;;;;;;;;;5043718;28;20028;-76
2023/05/27 10:35:20;;;;;;;2.65;0.63;;;;;;;;;;5021242;28;20033;-76
2023/05/27 10:37:48;;;;;;;1.42;0.60;;;;;;;;;;5016416;28;20036;-76
2023/05/27 10:40:23;;;;;;;1.55;0.50;;;;;;;;;;5017934;28;20792;-76
2023/05/27 10:43:02;;;;;;;1.77;0.60;;;;;;;;;;5043019;28;20621;-76
2023/05/27 10:45:34;;;;;;;2.47;0.60;;;;;;;;;;5024844;28;20416;-76
2023/05/27 10:48:00;;;;;;;1.30;0.50;;;;;;;;;;5005302;28;20560;-76
2023/05/27 10:50:34;;;;;;;2.53;0.65;;;;;;;;;;5025203;28;20116;-76
2023/05/27 10:53:02;;;;;;;2.30;0.68;;;;;;;;;;4996667;28;20508;-76
2023/05/27 10:55:28;;;;;;;2.40;0.50;;;;;;;;;;4971943;28;20055;-76
2023/05/27 10:57:53;;;;;;;1.67;0.47;;;;;;;;;;5004490;28;20488;-76
2023/05/27 11:00:20;;;;;;;2.17;0.70;;;;;;;;;;5006710;28;20051;-76
2023/05/27 11:02:48;;;;;;;1.35;0.52;;;;;;;;;;5025763;28;20064;-76
2023/05/27 11:05:14;;;;;;;2.33;0.70;;;;;;;;;;5008682;28;20492;-76
2023/05/27 11:07:40;;;;;;;2.63;0.65;;;;;;;;;;5011791;28;20041;-76
2023/05/27 11:10:10;;;;;;;1.67;0.60;;;;;;;;;;5016693;28;20396;-75
2023/05/27 11:12:35;;;;;;;2.78;0.57;;;;;;;;;;5008507;28;20033;-76
2023/05/27 11:15:01;;;;;;;2.57;0.70;;;;;;;;;;5026665;28;20029;-75
2023/05/27 11:17:27;;;;;;;3.13;0.60;;;;;;;;;;5025051;28;20071;-75
2023/05/27 11:19:53;;;;;;;3.05;0.80;;;;;;;;;;5025392;28;20057;-75
2023/05/27 11:22:19;;;;;;;1.77;0.65;;;;;;;;;;5043066;28;20055;-74
2023/05/27 11:25:00;;;;;;;2.05;0.80;;;;;;;;;;5008575;28;20033;-75
2023/05/27 11:27:35;;;;;;;2.05;0.70;;;;;;;;;;5016048;28;20033;-74
2023/05/27 11:30:07;;;;;;;2.00;0.50;;;;;;;;;;5008793;28;20033;-75
2023/05/27 11:32:34;;;;;;;4.05;0.60;;;;;;;;;;5024529;28;20060;-77
2023/05/27 11:35:00;;;;;;;2.85;0.63;;;;;;;;;;5024682;28;20032;-75
2023/05/27 11:37:31;;;;;;;1.67;0.57;;;;;;;;;;5042604;28;20056;-75
2023/05/27 11:39:57;;;;;;;2.50;0.70;;;;;;;;;;5024450;28;20048;-74
2023/05/27 11:42:23;;;;;;;1.70;0.40;;;;;;;;;;5023655;28;20040;-74
2023/05/27 11:44:53;;;;;;;2.00;0.63;;;;;;;;;;5025405;28;20109;-75
2023/05/27 11:47:18;;;;;;;1.85;0.80;;;;;;;;;;5000223;28;20029;-74
2023/05/27 11:49:43;;;;;;;1.40;0.57;;;;;;;;;;5042961;28;20041;-73
2023/05/27 11:52:11;;;;;;;3.27;0.80;;;;;;;;;;5024090;28;20501;-74
2023/05/27 11:54:37;;;;;;;1.65;0.50;;;;;;;;;;5024413;28;20044;-76
2023/05/27 11:57:06;;;;;;;2.65;0.80;;;;;;;;;;5024638;28;20435;-78
2023/05/27 11:59:33;;;;;;;2.25;0.88;;;;;;;;;;5025486;28;20040;-76
2023/05/27 12:01:58;;;;;;;1.60;0.70;;;;;;;;;;4998448;28;20032;-76
2023/05/27 12:04:23;;;;;;;2.85;1.05;;;;;;;;;;5022695;28;20060;-76
2023/05/27 12:06:49;;;;;;;2.92;0.90;;;;;;;;;;5007035;28;20106;-75
2023/05/27 12:09:15;;;;;;;7.40;0.85;;;;;;;;;;5024178;28;20508;-76
2023/05/27 12:11:40;;;;;;;2.83;1.00;;;;;;;;;;5045216;28;20045;-76
2023/05/27 12:14:05;;;;;;;1.65;0.70;;;;;;;;;;5011302;28;20051;-77
2023/05/27 12:16:31;;;;;;;2.75;0.77;;;;;;;;;;5045049;28;20056;-76
2023/05/27 12:18:58;;;;;;;1.58;0.70;;;;;;;;;;5028023;28;20037;-77
2023/05/27 12:21:23;;;;;;;2.42;0.85;;;;;;;;;;5027453;28;20040;-77
2023/05/27 12:23:49;;;;;;;3.55;1.00;;;;;;;;;;5011768;28;20401;-77
2023/05/27 12:26:15;;;;;;;2.17;0.82;;;;;;;;;;5001705;28;20033;-77
2023/05/27 12:28:41;;;;;;;3.03;1.00;;;;;;;;;;5028340;28;20527;-76
2023/05/27 12:31:07;;;;;;;4.05;1.00;;;;;;;;;;5027243;28;20036;-77
2023/05/27 12:33:32;;;;;;;2.13;0.70;;;;;;;;;;5046166;28;20043;-75
2023/05/27 12:36:00;;;;;;;3.33;1.00;;;;;;;;;;5045212;28;20115;-75
2023/05/27 12:38:25;;;;;;;3.80;0.95;;;;;;;;;;5045760;28;20515;-75
2023/05/27 12:40:51;;;;;;;3.50;1.00;;;;;;;;;;5027256;28;20056;-75
2023/05/27 12:43:17;;;;;;;3.33;0.98;;;;;;;;;;5027685;28;20064;-75
2023/05/27 12:45:43;;;;;;;2.85;1.10;;;;;;;;;;5027390;28;20059;-75
2023/05/27 12:48:08;;;;;;;2.55;1.00;;;;;;;;;;5027990;28;20037;-76
2023/05/27 12:50:34;;;;;;;3.08;0.93;;;;;;;;;;5028088;28;20033;-76
2023/05/27 12:52:59;;;;;;;3.33;1.00;;;;;;;;;;5028535;28;20086;-75
2023/05/27 12:55:25;;;;;;;3.17;1.15;;;;;;;;;;5044380;28;20032;-75
2023/05/27 12:57:52;;;;;;;3.30;1.00;;;;;;;;;;5027697;28;20086;-75
2023/05/27 13:00:18;;;;;;;4.88;1.00;;;;;;;;;;5045306;28;20511;-79
2023/05/27 13:02:45;;;;;;;2.83;1.13;;;;;;;;;;5011284;28;20033;-77
2023/05/27 13:05:10;;;;;;;5.40;1.15;;;;;;;;;;5027700;28;20032;-75
2023/05/27 13:07:37;;;;;;;4.65;1.35;;;;;;;;;;5045488;28;20485;-75
2023/05/27 13:10:04;;;;;;;4.15;1.13;;;;;;;;;;5029013;28;20395;-75
2023/05/27 13:12:30;;;;;;;;;;;;;;;;;;5028730;28;20136;-75
2023/05/27 13:14:57;;;;;;;3.10;1.00;;;;;;;;;;5010825;28;20518;-75
2023/05/27 13:17:23;;;;;;;3.55;1.15;;;;;;;;;;5045286;28;20072;-75
2023/05/27 13:19:48;;;;;;;2.55;1.02;;;;;;;;;;5024238;28;20623;-76
2023/05/27 13:22:14;;;;;;;3.15;1.10;;;;;;;;;;5025560;28;20068;-76
2023/05/27 13:24:40;;;;;;;3.43;1.10;;;;;;;;;;5023592;28;20033;-76
2023/05/27 13:27:06;;;;;;;2.35;0.90;;;;;;;;;;5025732;28;20033;-76
2023/05/27 13:29:32;;;;;;;3.95;0.90;;;;;;;;;;5024311;28;20396;-76
2023/05/27 13:31:57;;;;;;;4.93;1.00;;;;;;;;;;5025233;28;20033;-76
2023/05/27 13:34:23;;;;;;;2.78;0.80;;;;;;;;;;5025463;28;20037;-76
2023/05/27 13:36:48;;;;;;;2.45;1.00;;;;;;;;;;5025296;28;20041;-74
2023/05/27 13:39:14;;;;;;;4.95;1.30;;;;;;;;;;5025280;28;20041;-74
2023/05/27 13:41:39;;;;;;;2.30;0.80;;;;;;;;;;5024618;28;20045;-73
2023/05/27 13:44:05;;;;;;;2.65;1.00;;;;;;;;;;5024616;28;20476;-74
2023/05/27 13:46:30;;;;;;;4.63;1.15;;;;;;;;;;5024344;28;20782;-74
2023/05/27 13:48:56;;;;;;;2.80;0.95;;;;;;;;;;5024613;28;20576;-74
2023/05/27 13:51:21;;;;;;;2.50;0.70;;;;;;;;;;5023899;28;20032;-73
2023/05/27 13:53:48;;;;;;;2.60;0.85;;;;;;;;;;5023686;28;20114;-74
2023/05/27 13:56:14;;;;;;;2.33;0.98;;;;;;;;;;5024485;28;20084;-74
2023/05/27 13:58:39;;;;;;;2.20;0.75;;;;;;;;;;5023368;28;20041;-74
2023/05/27 14:01:04;;;;;;;3.05;0.90;;;;;;;;;;5025059;28;20104;-74
2023/05/27 14:03:30;;;;;;;2.42;0.80;;;;;;;;;;5025283;28;20030;-73
2023/05/27 14:05:56;;;;;;;2.28;0.85;;;;;;;;;;5016280;28;20095;-74
2023/05/27 14:08:22;;;;;;;2.38;0.75;;;;;;;;;;5025672;28;20497;-76
2023/05/27 14:10:47;;;;;;;2.25;0.70;;;;;;;;;;5024332;28;20033;-76
2023/05/27 14:13:13;;;;;;;1.83;0.63;;;;;;;;;;5022517;28;20045;-73
2023/05/27 14:15:38;;;;;;;5.65;1.10;;;;;;;;;;5022210;28;20522;-76
2023/05/27 14:18:05;;;;;;;1.85;0.73;;;;;;;;;;5024252;28;20088;-76
2023/05/27 14:20:31;;;;;;;2.00;0.73;;;;;;;;;;5022339;28;20041;-76
2023/05/27 14:22:59;;;;;;;2.58;0.80;;;;;;;;;;5025299;28;20462;-76
2023/05/27 14:25:24;;;;;;;4.78;2.25;;;;;;;;;;5017546;28;20473;-75
2023/05/27 14:27:50;;;;;;;3.83;1.58;;;;;;;;;;5024062;28;20091;-75
2023/05/27 14:30:15;;;;;;;5.40;1.70;;;;;;;;;;5022760;28;20034;-75
2023/05/27 14:32:41;;;;;;;3.67;1.70;;;;;;;;;;5022959;28;20034;-76
2023/05/27 14:35:07;;;;;;;3.70;1.70;;;;;;;;;;5023367;28;20037;-76
2023/05/27 14:37:32;;;;;;;3.78;1.20;;;;;;;;;;5024293;28;20025;-76
2023/05/27 14:39:57;;;;;;;7.15;1.50;;;;;;;;;;5020715;28;20041;-75
2023/05/27 14:42:23;;;;;;;3.15;0.98;;;;;;;;;;5022331;28;20041;-76